Time;durP1;ratioP1;P1;durP2;ratioP2;P2;SDS_P1;SDS_P2;PMS_P1;PMS_P2;Temp;Humidity;BMP_temperature;BMP_pressure;BME280_temperature;BME280_humidity;BME280_pressure;Samples;Min_cycle;Max_cycle;Signal;HPM_P1;HPM_P2
2023/06/26 00:01:25;;;;;;;6.30;5.47;;;;;;;21.28;73.17;100662.19;5008906;28;20227;-85
2023/06/26 00:03:51;;;;;;;5.93;5.40;;;;;;;21.26;72.95;100659.66;5010478;28;20223;-85
2023/06/26 00:06:19;;;;;;;5.27;4.77;;;;;;;21.26;72.76;100665.06;5009125;28;20222;-86
2023/06/26 00:08:46;;;;;;;5.73;5.10;;;;;;;21.24;72.58;100664.38;5002203;28;20217;-86
2023/06/26 00:11:12;;;;;;;5.05;4.60;;;;;;;21.25;72.44;100663.38;5005310;28;20595;-85
2023/06/26 00:13:39;;;;;;;5.60;5.10;;;;;;;21.29;71.79;100664.75;5004902;28;20219;-86
2023/06/26 00:16:05;;;;;;;4.63;4.23;;;;;;;21.36;70.95;100654.91;4995421;28;20208;-86
2023/06/26 00:18:32;;;;;;;5.33;4.83;;;;;;;21.41;70.58;100657.97;4994360;28;20217;-85
2023/06/26 00:20:58;;;;;;;5.97;5.30;;;;;;;21.44;70.13;100651.38;5000457;28;20233;-86
2023/06/26 00:23:27;;;;;;;8.05;4.80;;;;;;;21.49;69.73;100649.03;5005731;28;20256;-86
2023/06/26 00:25:53;;;;;;;7.30;4.90;;;;;;;21.52;69.68;100650.53;5002998;28;20202;-86
2023/06/26 00:28:20;;;;;;;6.45;4.60;;;;;;;21.54;69.67;100645.78;5007479;28;20221;-85
2023/06/26 00:30:46;;;;;;;6.57;5.28;;;;;;;21.54;69.60;100643.94;5008000;28;20241;-86
2023/06/26 00:33:13;;;;;;;7.47;5.70;;;;;;;21.55;70.46;100637.50;5009672;28;20214;-87
2023/06/26 00:35:39;;;;;;;7.57;6.13;;;;;;;21.54;71.55;100645.78;5006524;28;20588;-87
2023/06/26 00:38:06;;;;;;;6.43;5.75;;;;;;;21.52;72.02;100645.13;5008819;28;20218;-86
2023/06/26 00:40:34;;;;;;;6.88;6.18;;;;;;;21.47;72.71;100646.50;5010210;28;20226;-87
2023/06/26 00:43:00;;;;;;;6.90;6.20;;;;;;;21.42;73.26;100643.44;5005687;28;20727;-87
2023/06/26 00:45:27;;;;;;;7.38;6.30;;;;;;;21.38;73.76;100646.63;5003121;28;20225;-86
2023/06/26 00:47:54;;;;;;;7.47;6.32;;;;;;;21.33;74.04;100644.41;5004703;28;20222;-86
2023/06/26 00:50:21;;;;;;;11.30;5.95;;;;;;;21.30;74.07;100638.50;5000750;28;20869;-86
2023/06/26 00:52:48;;;;;;;9.85;6.25;;;;;;;21.28;74.41;100635.97;5011862;28;20206;-86
2023/06/26 00:55:15;;;;;;;8.48;6.57;;;;;;;21.25;74.39;100628.16;5006134;28;20713;-85
2023/06/26 00:57:45;;;;;;;7.88;5.97;;;;;;;21.22;74.63;100631.19;5007166;28;20198;-86
2023/06/26 01:00:13;;;;;;;6.88;5.82;;;;;;;21.20;74.50;100622.38;5009146;28;20237;-85
2023/06/26 01:02:39;;;;;;;6.28;5.65;;;;;;;21.20;74.60;100624.25;5002578;28;20245;-86
2023/06/26 01:05:07;;;;;;;5.20;4.70;;;;;;;21.19;73.29;100626.06;5012432;28;20211;-85
2023/06/26 01:07:37;;;;;;;5.93;5.23;;;;;;;21.12;72.39;100623.19;5009169;28;20221;-85
2023/06/26 01:10:04;;;;;;;4.93;4.43;;;;;;;21.09;71.63;100623.53;5013477;28;20321;-87
2023/06/26 01:12:32;;;;;;;5.10;4.60;;;;;;;21.06;71.37;100626.56;5000067;28;20210;-86
2023/06/26 01:15:00;;;;;;;5.75;4.43;;;;;;;21.04;70.81;100619.63;5008146;28;20622;-86
2023/06/26 01:17:31;;;;;;;4.80;4.40;;;;;;;21.03;70.63;100618.75;5009638;28;20214;-86
2023/06/26 01:19:58;;;;;;;5.13;4.68;;;;;;;21.03;70.12;100617.91;5010837;28;20230;-86
2023/06/26 01:22:32;;;;;;;4.95;4.43;;;;;;;21.06;69.64;100610.31;5004474;28;20298;-85
2023/06/26 01:25:11;;;;;;;4.40;4.00;;;;;;;21.09;69.04;100609.13;5008094;28;20217;-86
2023/06/26 01:27:39;;;;;;;6.20;4.53;;;;;;;21.10;68.58;100605.41;5007151;28;20817;-85
2023/06/26 01:33:29;;;;;;;7.82;4.60;;;;;;;21.15;68.23;100603.03;5005932;28;20215;-85
2023/06/26 01:35:56;;;;;;;5.20;4.40;;;;;;;21.17;67.79;100598.31;5007362;28;20203;-85
2023/06/26 01:38:23;;;;;;;3.83;3.53;;;;;;;21.19;67.56;100592.72;5004792;28;20214;-85
2023/06/26 01:40:50;;;;;;;5.75;4.63;;;;;;;21.21;67.36;100596.16;5012996;28;20281;-85
2023/06/26 01:43:28;;;;;;;5.13;4.40;;;;;;;21.22;67.19;100592.44;5008072;28;20607;-85
2023/06/26 01:46:00;;;;;;;5.00;4.47;;;;;;;21.25;67.03;100590.25;5010458;28;20590;-85
2023/06/26 01:48:31;;;;;;;4.43;4.00;;;;;;;21.24;67.00;100588.53;5005356;28;20199;-86
2023/06/26 01:51:00;;;;;;;6.45;4.47;;;;;;;21.25;66.58;100586.69;5007742;28;20227;-85
2023/06/26 01:53:33;;;;;;;4.93;3.97;;;;;;;21.29;66.53;100585.34;5005889;28;20210;-86
2023/06/26 01:56:06;;;;;;;4.50;4.10;;;;;;;21.30;66.30;100584.31;5007594;28;20203;-86
2023/06/26 01:58:34;;;;;;;5.15;4.65;;;;;;;21.31;66.22;100576.03;5001141;28;20673;-86
2023/06/26 02:01:01;;;;;;;5.22;4.60;;;;;;;21.32;66.16;100572.28;5009291;28;20227;-86
2023/06/26 02:03:27;;;;;;;4.90;4.50;;;;;;;21.34;66.25;100570.25;5007839;28;20235;-85
2023/06/26 02:05:54;;;;;;;4.97;4.57;;;;;;;21.35;65.84;100573.81;5002113;28;20222;-86
2023/06/26 02:08:22;;;;;;;5.30;4.80;;;;;;;21.34;66.40;100578.38;5005036;28;20215;-85
2023/06/26 02:10:49;;;;;;;5.65;4.85;;;;;;;21.32;66.95;100569.56;5004877;28;20761;-86
2023/06/26 02:13:15;;;;;;;9.90;5.00;;;;;;;21.32;67.69;100564.16;5008851;28;20669;-86
2023/06/26 02:15:43;;;;;;;6.00;5.38;;;;;;;21.26;68.32;100570.25;5001204;28;20222;-86
2023/06/26 02:18:10;;;;;;;5.15;4.60;;;;;;;21.21;68.62;100559.06;5002101;28;20202;-86
2023/06/26 02:20:36;;;;;;;6.35;5.20;;;;;;;21.14;69.23;100558.84;5001711;28;20231;-85
2023/06/26 02:23:03;;;;;;;7.05;5.15;;;;;;;21.10;69.59;100552.09;5009629;28;20720;-86
2023/06/26 02:25:29;;;;;;;6.10;4.88;;;;;;;21.05;69.88;100562.59;5011169;28;20652;-86
2023/06/26 02:27:56;;;;;;;6.88;5.30;;;;;;;21.01;70.51;100558.50;5012242;28;20868;-86
2023/06/26 02:30:22;;;;;;;5.38;4.93;;;;;;;20.98;70.68;100563.41;5003751;28;20718;-86
2023/06/26 02:32:50;;;;;;;6.45;5.05;;;;;;;20.94;70.90;100553.94;5012321;28;20222;-86
2023/06/26 02:35:16;;;;;;;5.07;4.57;;;;;;;20.91;70.96;100556.97;5004491;28;20213;-86
2023/06/26 02:37:43;;;;;;;5.83;5.17;;;;;;;20.87;71.15;100555.59;5012118;28;20198;-85
2023/06/26 02:40:11;;;;;;;6.53;4.90;;;;;;;20.84;71.15;100554.06;5001773;28;20238;-86
2023/06/26 02:42:37;;;;;;;9.80;4.93;;;;;;;20.80;71.30;100550.84;5005556;28;20285;-86
2023/06/26 02:45:04;;;;;;;7.30;5.13;;;;;;;20.77;71.49;100551.19;4996827;28;20715;-86
2023/06/26 02:47:31;;;;;;;6.95;4.80;;;;;;;20.75;71.89;100544.25;5000102;28;20217;-86
2023/06/26 02:49:59;;;;;;;6.65;5.07;;;;;;;20.71;71.97;100546.44;5003570;28;20241;-86
2023/06/26 02:52:25;;;;;;;7.27;5.00;;;;;;;20.67;72.43;100542.38;5006857;28;20233;-86
2023/06/26 02:54:52;;;;;;;4.97;4.57;;;;;;;20.62;72.43;100533.88;5000073;28;20210;-84
2023/06/26 02:57:18;;;;;;;5.10;4.60;;;;;;;20.57;72.85;100540.81;5012719;28;20206;-85
2023/06/26 02:59:45;;;;;;;5.77;4.87;;;;;;;20.53;73.41;100540.28;5004207;28;20205;-84
2023/06/26 03:02:11;;;;;;;6.87;4.90;;;;;;;20.49;73.78;100535.38;5010367;28;20241;-85
2023/06/26 03:04:38;;;;;;;5.60;5.10;;;;;;;20.46;73.95;100531.13;5008558;28;20263;-85
2023/06/26 03:07:06;;;;;;;5.90;4.90;;;;;;;20.43;74.08;100526.88;5011908;28;20216;-85
2023/06/26 03:09:32;;;;;;;5.67;5.17;;;;;;;20.42;73.97;100527.91;5008380;28;20381;-84
2023/06/26 03:11:59;;;;;;;5.80;5.30;;;;;;;20.38;74.17;100521.13;4997090;28;20307;-85
2023/06/26 03:14:26;;;;;;;5.57;4.93;;;;;;;20.37;74.44;100527.56;5010072;28;20209;-85
2023/06/26 03:16:56;;;;;;;5.30;4.67;;;;;;;20.35;74.30;100520.59;4997992;28;20260;-85
2023/06/26 03:19:23;;;;;;;6.60;5.63;;;;;;;20.34;74.40;100521.59;5010480;28;20256;-85
2023/06/26 03:21:49;;;;;;;5.67;5.17;;;;;;;20.32;74.26;100516.34;4998099;28;20230;-84
2023/06/26 03:24:17;;;;;;;5.27;4.77;;;;;;;20.31;74.21;100521.91;5001187;28;20232;-85
2023/06/26 03:26:44;;;;;;;6.20;5.10;;;;;;;20.29;74.08;100515.81;5009236;28;20206;-85
2023/06/26 03:29:10;;;;;;;5.97;4.77;;;;;;;20.31;74.14;100521.91;5008196;28;20212;-85
2023/06/26 03:31:37;;;;;;;5.30;4.63;;;;;;;20.30;74.04;100506.69;5012036;28;20238;-85
2023/06/26 03:34:03;;;;;;;5.30;4.80;;;;;;;20.29;73.85;100507.69;5011189;28;20208;-85
2023/06/26 03:37:05;;;;;;;;;;;;;;;;;;;;;
2023/06/26 03:39:34;;;;;;;5.57;5.07;;;;;;;20.29;73.50;100513.97;5011467;28;20701;-85
2023/06/26 03:42:01;;;;;;;5.10;4.60;;;;;;;20.29;73.28;100511.25;4993486;28;20231;-85
2023/06/26 03:44:27;;;;;;;6.23;4.37;;;;;;;20.30;73.31;100512.09;5009205;28;20241;-85
2023/06/26 03:46:54;;;;;;;6.37;5.13;;;;;;;20.31;73.21;100509.22;5003751;28;20214;-85
2023/06/26 03:49:20;;;;;;;6.03;5.00;;;;;;;20.32;73.22;100512.78;5007902;28;20228;-85
2023/06/26 03:51:47;;;;;;;7.37;5.13;;;;;;;20.35;73.23;100504.34;4997688;28;20227;-85
2023/06/26 03:54:13;;;;;;;5.10;4.60;;;;;;;20.33;73.34;100501.81;5011027;28;20210;-85
2023/06/26 03:56:41;;;;;;;6.17;5.13;;;;;;;20.33;73.34;100498.25;5007372;28;20217;-84
2023/06/26 03:59:08;;;;;;;6.87;4.97;;;;;;;20.36;73.93;100506.06;5006200;28;20560;-84
2023/06/26 04:01:36;;;;;;;6.37;4.67;;;;;;;20.37;74.32;100507.78;4993725;28;20231;-86
2023/06/26 04:04:03;;;;;;;5.80;5.17;;;;;;;20.36;74.21;100503.34;5004757;28;20233;-85
2023/06/26 04:06:31;;;;;;;4.97;4.43;;;;;;;20.34;74.59;100499.94;5009157;28;20218;-85
2023/06/26 04:08:57;;;;;;;6.67;5.00;;;;;;;20.36;74.96;100506.94;4999013;28;21465;-85
2023/06/26 04:11:24;;;;;;;5.30;4.73;;;;;;;20.37;75.06;100505.91;5013919;28;20309;-86
2023/06/26 04:13:52;;;;;;;6.57;4.60;;;;;;;20.39;75.04;100509.31;5005919;28;20266;-85
2023/06/26 04:16:20;;;;;;;7.33;4.80;;;;;;;20.42;75.46;100506.25;5011969;28;20212;-86
2023/06/26 04:18:47;;;;;;;10.70;5.07;;;;;;;20.45;75.86;100496.97;5007301;28;20290;-86
2023/06/26 04:21:14;;;;;;;6.03;4.50;;;;;;;20.47;76.04;100492.25;5012219;28;20243;-85
2023/06/26 04:23:41;;;;;;;7.67;5.13;;;;;;;20.50;75.84;100493.78;5014885;28;20232;-85
2023/06/26 04:26:08;;;;;;;6.20;4.50;;;;;;;20.55;75.44;100496.84;5010939;28;20205;-85
2023/06/26 04:28:36;;;;;;;6.38;4.65;;;;;;;20.60;75.06;100494.50;5001718;28;20205;-85
2023/06/26 04:31:04;;;;;;;5.25;4.60;;;;;;;20.64;74.35;100491.28;5002971;28;20237;-86
2023/06/26 04:33:30;;;;;;;4.90;4.17;;;;;;;20.70;73.90;100482.50;5004813;28;20651;-85
2023/06/26 04:35:57;;;;;;;5.53;4.20;;;;;;;20.77;73.44;100482.69;5005499;28;20221;-85
2023/06/26 04:38:24;;;;;;;6.70;4.40;;;;;;;20.84;73.33;100475.56;5012996;28;20221;-86
2023/06/26 04:40:50;;;;;;;4.37;3.97;;;;;;;20.92;73.05;100478.31;5011931;28;20232;-86
2023/06/26 04:43:17;;;;;;;5.15;4.60;;;;;;;20.99;72.77;100473.88;5009024;28;20658;-86
2023/06/26 04:45:44;;;;;;;5.03;4.55;;;;;;;21.09;72.49;100473.75;5005779;28;20746;-84
2023/06/26 04:48:12;;;;;;;4.72;4.13;;;;;;;21.18;72.21;100467.28;5006184;28;20214;-86
2023/06/26 04:50:38;;;;;;;4.90;4.50;;;;;;;21.26;71.90;100467.34;5008699;28;20234;-86
2023/06/26 04:53:05;;;;;;;5.25;4.75;;;;;;;21.35;71.74;100466.28;5008371;28;20216;-86
2023/06/26 04:55:31;;;;;;;5.57;5.07;;;;;;;21.43;71.59;100469.00;5005597;28;20209;-86
2023/06/26 04:57:58;;;;;;;5.97;4.47;;;;;;;21.54;71.13;100461.53;5010294;28;20201;-87
2023/06/26 05:00:24;;;;;;;6.80;4.60;;;;;;;21.62;70.62;100462.38;5006986;28;20226;-86
2023/06/26 05:03:00;;;;;;;4.68;4.28;;;;;;;21.71;70.39;100460.47;5009358;28;20207;-86
2023/06/26 05:05:28;;;;;;;4.57;4.10;;;;;;;21.78;70.20;100453.34;5007345;28;20233;-85
2023/06/26 05:07:55;;;;;;;6.22;4.63;;;;;;;21.87;70.10;100454.16;5008327;28;20264;-87
2023/06/26 05:10:22;;;;;;;6.57;4.78;;;;;;;21.93;69.90;100454.31;5011822;28;20230;-87
2023/06/26 05:12:48;;;;;;;4.70;4.20;;;;;;;22.02;69.49;100456.00;5007859;28;20290;-87
2023/06/26 05:15:15;;;;;;;5.78;4.93;;;;;;;22.09;69.37;100459.69;5011187;28;20202;-86
2023/06/26 05:17:41;;;;;;;4.75;4.32;;;;;;;22.18;69.39;100449.66;5009094;28;20290;-86
2023/06/26 05:20:09;;;;;;;5.10;4.55;;;;;;;22.26;69.06;100446.06;5009346;28;20239;-86
2023/06/26 05:22:38;;;;;;;4.90;4.50;;;;;;;22.35;69.12;100445.84;4998912;28;20203;-86
2023/06/26 05:25:09;;;;;;;5.18;4.60;;;;;;;22.45;68.63;100451.88;5009491;28;20235;-86
2023/06/26 05:27:36;;;;;;;4.43;3.95;;;;;;;22.56;68.45;100441.66;5011997;28;20728;-87
2023/06/26 05:30:04;;;;;;;5.53;4.40;;;;;;;22.66;68.61;100445.81;5013894;28;20237;-86
2023/06/26 05:32:31;;;;;;;4.75;4.35;;;;;;;22.77;68.39;100439.97;5013964;28;20199;-86
2023/06/26 05:34:59;;;;;;;8.32;5.15;;;;;;;22.89;68.18;100435.00;5014376;28;20712;-87
2023/06/26 05:37:28;;;;;;;4.97;4.20;;;;;;;23.00;67.51;100437.25;5014165;28;20555;-86
2023/06/26 05:39:57;;;;;;;4.75;4.35;;;;;;;23.12;67.15;100432.22;5013504;28;20211;-86
2023/06/26 05:42:24;;;;;;;4.72;4.25;;;;;;;23.24;66.59;100429.94;5013046;28;20211;-86
2023/06/26 05:44:50;;;;;;;4.32;3.92;;;;;;;23.33;66.17;100435.09;5012556;28;20235;-86
2023/06/26 05:47:17;;;;;;;4.72;4.05;;;;;;;23.47;65.07;100422.53;5012889;28;20198;-86
2023/06/26 05:49:43;;;;;;;5.65;4.22;;;;;;;23.57;63.82;100423.16;5013103;28;20716;-86
2023/06/26 05:52:12;;;;;;;5.05;4.38;;;;;;;23.69;63.08;100421.66;5005219;28;20716;-86
2023/06/26 05:54:39;;;;;;;4.88;4.32;;;;;;;23.81;62.29;100428.34;4999121;28;20569;-85
2023/06/26 05:57:07;;;;;;;4.60;4.20;;;;;;;23.93;62.19;100423.25;5005385;28;20213;-85
2023/06/26 05:59:37;;;;;;;7.18;4.82;;;;;;;24.04;62.42;100413.75;5000831;28;20618;-85
2023/06/26 06:02:04;;;;;;;5.18;4.68;;;;;;;24.21;61.24;100418.78;5005367;28;20214;-85
2023/06/26 06:04:30;;;;;;;5.72;4.05;;;;;;;24.33;60.38;100413.75;4996589;28;20229;-85
2023/06/26 06:06:57;;;;;;;5.30;4.63;;;;;;;24.44;58.35;100420.53;5008225;28;20687;-85
2023/06/26 06:09:24;;;;;;;4.35;3.95;;;;;;;24.52;56.55;100424.00;5008952;28;20712;-85
2023/06/26 06:11:51;;;;;;;4.85;4.35;;;;;;;24.63;55.52;100416.34;4998389;28;20231;-85
2023/06/26 06:14:18;;;;;;;4.75;4.35;;;;;;;24.73;55.71;100417.69;5006554;28;20203;-84
2023/06/26 06:16:45;;;;;;;4.85;4.38;;;;;;;24.90;53.98;100416.41;5005704;28;20592;-84
2023/06/26 06:19:13;;;;;;;4.97;4.40;;;;;;;25.01;53.62;100416.97;5003435;28;20207;-85
2023/06/26 06:21:39;;;;;;;4.63;4.13;;;;;;;25.15;53.59;100413.28;5000356;28;20227;-85
2023/06/26 06:24:07;;;;;;;5.93;4.50;;;;;;;25.29;53.82;100417.81;5003331;28;20854;-85
2023/06/26 06:26:34;;;;;;;4.88;4.40;;;;;;;25.44;53.50;100421.25;5004945;28;20206;-85
2023/06/26 06:29:00;;;;;;;4.82;4.43;;;;;;;25.55;52.82;100420.72;5002609;28;20211;-85
2023/06/26 06:31:28;;;;;;;4.85;4.45;;;;;;;25.69;52.72;100418.09;5001537;28;20664;-85
2023/06/26 06:33:55;;;;;;;5.03;4.40;;;;;;;25.84;52.39;100416.09;5005534;28;20208;-84
2023/06/26 06:36:21;;;;;;;5.78;4.90;;;;;;;25.92;51.67;100416.78;5001213;28;20209;-84
2023/06/26 06:38:48;;;;;;;6.18;5.65;;;;;;;26.03;51.61;100419.97;5006530;28;20213;-85
2023/06/26 06:41:15;;;;;;;8.10;4.70;;;;;;;26.15;51.23;100415.63;5001687;28;20230;-84
2023/06/26 06:43:42;;;;;;;4.60;4.13;;;;;;;26.25;51.20;100416.06;4999133;28;20207;-85
2023/06/26 06:46:09;;;;;;;4.63;4.22;;;;;;;26.37;50.94;100411.72;4998617;28;20252;-85
2023/06/26 06:48:37;;;;;;;4.50;4.10;;;;;;;26.52;51.13;100411.53;4998725;28;20206;-84
2023/06/26 06:51:03;;;;;;;5.97;4.60;;;;;;;26.64;50.68;100418.09;4996915;28;20231;-85
2023/06/26 06:53:30;;;;;;;5.00;4.55;;;;;;;26.77;49.95;100414.53;5003806;28;20215;-85
2023/06/26 06:55:57;;;;;;;4.85;4.40;;;;;;;26.87;48.73;100412.25;5002929;28;20252;-84
2023/06/26 06:58:23;;;;;;;5.10;4.53;;;;;;;26.92;48.31;100413.28;5004098;28;20223;-85
2023/06/26 07:00:51;;;;;;;5.32;4.57;;;;;;;27.00;48.29;100406.81;5003016;28;20226;-84
2023/06/26 07:03:17;;;;;;;4.50;4.10;;;;;;;27.07;47.72;100409.53;5008877;28;20221;-85
2023/06/26 07:05:45;;;;;;;5.25;4.75;;;;;;;27.17;47.41;100410.81;5006922;28;20230;-85
2023/06/26 07:08:12;;;;;;;6.78;4.85;;;;;;;27.24;47.90;100408.06;5003610;28;20206;-86
2023/06/26 07:10:38;;;;;;;5.47;4.90;;;;;;;27.31;47.96;100409.75;5007647;28;20223;-85
2023/06/26 07:13:04;;;;;;;5.07;4.57;;;;;;;27.43;47.44;100418.16;5006473;28;20683;-85
2023/06/26 07:15:32;;;;;;;4.70;4.30;;;;;;;27.56;46.65;100409.09;5001892;28;20668;-85
2023/06/26 07:17:58;;;;;;;5.22;4.72;;;;;;;27.60;46.75;100411.19;5003865;28;20210;-86
2023/06/26 07:20:25;;;;;;;4.85;4.40;;;;;;;27.72;47.32;100410.56;5005671;28;20227;-85
2023/06/26 07:22:53;;;;;;;4.97;4.47;;;;;;;27.80;46.84;100419.34;5008711;28;20206;-85
2023/06/26 07:25:20;;;;;;;5.40;4.90;;;;;;;27.89;46.73;100417.25;4999414;28;20227;-86
2023/06/26 07:27:46;;;;;;;5.25;4.80;;;;;;;28.00;46.48;100409.19;5005352;28;20212;-85
2023/06/26 07:30:13;;;;;;;5.00;4.60;;;;;;;28.13;46.15;100411.03;4998365;28;20230;-85
2023/06/26 07:32:40;;;;;;;5.85;4.40;;;;;;;28.24;46.04;100398.59;5006364;28;20206;-85
2023/06/26 07:35:07;;;;;;;4.70;4.30;;;;;;;28.38;45.29;100419.38;5005645;28;20230;-85
2023/06/26 07:37:33;;;;;;;8.80;4.82;;;;;;;28.42;45.10;100406.94;5003813;28;21758;-85
2023/06/26 07:40:02;;;;;;;5.45;4.95;;;;;;;28.50;45.00;100423.09;5010310;28;20202;-85
2023/06/26 07:42:28;;;;;;;4.85;4.45;;;;;;;28.58;44.75;100413.78;5003314;28;20203;-83
2023/06/26 07:44:55;;;;;;;5.60;5.10;;;;;;;28.72;44.75;100417.28;5001586;28;20235;-83
2023/06/26 07:47:21;;;;;;;5.30;4.80;;;;;;;28.77;44.22;100415.56;5003611;28;20203;-85
2023/06/26 07:49:48;;;;;;;5.45;5.03;;;;;;;28.86;43.58;100410.66;5004671;28;20294;-85
2023/06/26 07:52:16;;;;;;;5.43;4.97;;;;;;;28.93;43.81;100415.03;5000074;28;20207;-85
2023/06/26 07:54:42;;;;;;;5.50;5.00;;;;;;;28.96;43.43;100414.59;5002905;28;20195;-85
2023/06/26 07:57:11;;;;;;;5.45;4.95;;;;;;;29.03;43.50;100412.63;5001014;28;20195;-85
2023/06/26 07:59:38;;;;;;;4.93;4.53;;;;;;;29.06;43.10;100407.75;5000192;28;20647;-85
2023/06/26 08:02:05;;;;;;;5.90;5.40;;;;;;;29.09;43.62;100418.28;4999689;28;20239;-85
2023/06/26 08:04:33;;;;;;;5.40;4.90;;;;;;;29.17;43.64;100415.28;5001687;28;20249;-85
2023/06/26 08:07:01;;;;;;;5.55;5.15;;;;;;;29.20;43.24;100414.84;5005617;28;20215;-85
2023/06/26 08:09:29;;;;;;;5.10;4.70;;;;;;;29.24;44.00;100414.16;4997269;28;20223;-85
2023/06/26 08:11:56;;;;;;;5.70;5.20;;;;;;;29.28;43.59;100415.38;5004009;28;20227;-85
2023/06/26 08:14:25;;;;;;;5.45;4.95;;;;;;;29.34;43.85;100406.25;5005723;28;20209;-85
2023/06/26 08:16:51;;;;;;;5.85;5.25;;;;;;;29.43;43.19;100408.72;5001029;28;20401;-85
2023/06/26 08:19:18;;;;;;;5.35;4.85;;;;;;;29.43;43.47;100403.25;5001099;28;20206;-86
2023/06/26 08:21:46;;;;;;;6.43;5.35;;;;;;;29.45;43.15;100407.44;4999004;28;20230;-85
2023/06/26 08:24:16;;;;;;;7.75;5.22;;;;;;;29.48;43.20;100408.91;4999085;28;20203;-85
2023/06/26 08:26:42;;;;;;;5.68;5.18;;;;;;;29.48;42.67;100403.41;5002829;28;20238;-84
2023/06/26 08:29:09;;;;;;;5.60;5.13;;;;;;;29.50;43.07;100404.88;5004582;28;20199;-85
2023/06/26 08:31:36;;;;;;;5.45;5.00;;;;;;;29.57;42.72;100396.53;5000172;28;20226;-85
2023/06/26 08:34:03;;;;;;;5.40;4.90;;;;;;;29.62;43.39;100402.19;5000108;28;20210;-84
2023/06/26 08:36:30;;;;;;;5.75;5.25;;;;;;;29.69;43.95;100405.72;5005905;28;20233;-85
2023/06/26 08:38:56;;;;;;;5.70;5.20;;;;;;;29.77;42.95;100396.34;5003950;28;20704;-85
2023/06/26 08:41:23;;;;;;;5.13;4.72;;;;;;;29.83;43.16;100392.69;5003785;28;20234;-86
2023/06/26 08:43:52;;;;;;;6.20;5.68;;;;;;;29.92;42.17;100389.38;4999535;28;20218;-85
2023/06/26 08:46:19;;;;;;;5.72;5.10;;;;;;;29.98;43.06;100391.25;5000893;28;20234;-85
2023/06/26 08:48:50;;;;;;;6.75;6.15;;;;;;;30.08;41.82;100381.66;5007834;28;20285;-85
2023/06/26 08:51:18;;;;;;;5.82;5.32;;;;;;;30.11;41.78;100384.75;5007593;28;20218;-85
2023/06/26 08:53:51;;;;;;;5.93;5.43;;;;;;;30.18;42.36;100379.19;5000705;28;20281;-85
2023/06/26 08:56:21;;;;;;;5.55;5.10;;;;;;;30.23;42.75;100388.41;5005116;28;20218;-85
2023/06/26 08:58:47;;;;;;;6.60;6.03;;;;;;;30.27;41.99;100391.53;5006578;28;20343;-86
2023/06/26 09:01:14;;;;;;;6.15;5.50;;;;;;;30.30;41.91;100394.63;5003334;28;20234;-85
2023/06/26 09:03:41;;;;;;;6.50;5.90;;;;;;;30.40;41.25;100413.31;5005833;28;20270;-85
2023/06/26 09:06:09;;;;;;;6.40;5.80;;;;;;;30.41;41.60;100417.75;5004733;28;20257;-85
2023/06/26 09:08:35;;;;;;;6.35;5.75;;;;;;;30.40;41.38;100427.06;5002219;28;20198;-85
2023/06/26 09:11:02;;;;;;;5.75;5.32;;;;;;;30.49;42.43;100430.31;4999644;28;20242;-85
2023/06/26 09:13:30;;;;;;;5.95;5.35;;;;;;;30.53;42.56;100428.78;5001058;28;20242;-85
2023/06/26 09:15:56;;;;;;;6.97;6.30;;;;;;;30.62;42.63;100438.41;5002965;28;20211;-85
2023/06/26 09:18:23;;;;;;;7.03;6.32;;;;;;;30.64;41.98;100439.00;5000986;28;20572;-85
2023/06/26 09:20:50;;;;;;;6.43;5.82;;;;;;;30.70;42.42;100438.06;5003924;28;20227;-86
2023/06/26 09:23:18;;;;;;;6.68;5.85;;;;;;;30.73;42.89;100443.94;5002123;28;20207;-85
2023/06/26 09:25:45;;;;;;;7.05;6.20;;;;;;;30.76;43.04;100436.31;5003709;28;20223;-86
2023/06/26 09:28:12;;;;;;;6.72;6.13;;;;;;;30.73;42.39;100432.94;5006874;28;20207;-85
2023/06/26 09:30:38;;;;;;;10.40;6.65;;;;;;;30.73;41.87;100445.84;5004336;28;20230;-86
2023/06/26 09:33:15;;;;;;;7.63;6.93;;;;;;;30.66;41.60;100440.44;5005645;28;20211;-86
2023/06/26 09:35:42;;;;;;;7.80;7.10;;;;;;;30.64;41.78;100439.00;5003436;28;20576;-86
2023/06/26 09:38:08;;;;;;;7.88;7.18;;;;;;;30.58;42.68;100438.03;5005373;28;20207;-88
2023/06/26 09:40:38;;;;;;;7.72;6.95;;;;;;;30.62;42.76;100435.66;5006682;28;20903;-85
2023/06/26 09:43:05;;;;;;;8.07;6.18;;;;;;;30.65;42.98;100449.75;5003339;28;20211;-85
2023/06/26 09:45:32;;;;;;;8.18;6.70;;;;;;;30.69;43.02;100450.13;4997314;28;20319;-85
2023/06/26 09:48:02;;;;;;;8.27;7.40;;;;;;;30.73;43.22;100449.44;5010271;28;20215;-85
2023/06/26 09:50:29;;;;;;;7.50;6.90;;;;;;;30.68;43.12;100453.97;5001811;28;20235;-84
2023/06/26 09:52:56;;;;;;;7.75;7.05;;;;;;;30.61;43.33;100461.47;5003539;28;20211;-85
2023/06/26 09:55:23;;;;;;;7.22;6.60;;;;;;;30.56;44.01;100464.91;5005008;28;20215;-85
2023/06/26 09:57:52;;;;;;;8.93;7.07;;;;;;;30.46;43.14;100464.59;5006905;28;20234;-85
2023/06/26 10:00:19;;;;;;;7.65;6.68;;;;;;;30.36;43.43;100469.81;4998810;28;20234;-84
2023/06/26 10:02:46;;;;;;;7.10;6.50;;;;;;;30.27;43.85;100479.44;4996739;28;20211;-85
2023/06/26 10:05:13;;;;;;;7.57;6.78;;;;;;;30.15;44.27;100484.00;5007033;28;20585;-85
2023/06/26 10:07:40;;;;;;;7.68;6.22;;;;;;;30.08;44.62;100489.59;5005070;28;20211;-85
2023/06/26 10:10:09;;;;;;;7.75;5.70;;;;;;;29.97;43.86;100493.91;5002446;28;20855;-86
2023/06/26 10:12:36;;;;;;;6.25;5.32;;;;;;;29.80;43.56;100508.44;5004656;28;21144;-85
2023/06/26 10:15:05;;;;;;;6.88;5.85;;;;;;;29.66;43.66;100503.06;5003994;28;20219;-85
2023/06/26 10:17:36;;;;;;;6.07;5.57;;;;;;;29.53;43.61;100519.66;5006490;28;20235;-84
2023/06/26 10:20:05;;;;;;;6.53;5.93;;;;;;;29.36;43.58;100527.59;5000351;28;20223;-84
2023/06/26 10:22:36;;;;;;;6.32;5.72;;;;;;;29.21;44.40;100521.56;5001973;28;20210;-85
2023/06/26 10:25:07;;;;;;;6.10;5.50;;;;;;;29.07;45.02;100527.34;5000371;28;20202;-85
2023/06/26 10:27:37;;;;;;;7.43;6.72;;;;;;;28.96;45.95;100529.75;5003374;28;20223;-85
2023/06/26 10:30:10;;;;;;;8.27;6.43;;;;;;;28.85;46.46;100541.41;5003818;28;20295;-85
2023/06/26 10:32:37;;;;;;;7.60;6.63;;;;;;;28.76;46.76;100529.00;5000139;28;20212;-85
2023/06/26 10:35:07;;;;;;;7.68;6.95;;;;;;;28.74;47.64;100542.06;5005057;28;20228;-85
2023/06/26 10:37:44;;;;;;;10.60;7.80;;;;;;;28.74;47.98;100542.06;5000790;28;20230;-86
2023/06/26 10:40:14;;;;;;;8.50;7.53;;;;;;;28.70;48.78;100527.13;4993986;28;20272;-87
2023/06/26 10:42:41;;;;;;;9.57;8.23;;;;;;;28.67;49.19;100522.91;5004095;28;20199;-87
2023/06/26 10:45:15;;;;;;;10.25;9.30;;;;;;;28.60;48.70;100515.78;4994133;28;20302;-87
2023/06/26 10:47:43;;;;;;;10.27;8.93;;;;;;;28.56;49.27;100544.69;4996946;28;20753;-87
2023/06/26 10:50:24;;;;;;;9.13;8.32;;;;;;;28.48;50.09;100564.13;5007025;28;20222;-87
2023/06/26 10:53:09;;;;;;;10.13;8.52;;;;;;;28.38;50.99;100580.97;5000670;28;21014;-87
2023/06/26 10:55:36;;;;;;;10.35;9.10;;;;;;;28.20;52.33;100591.78;5003778;28;20227;-86
2023/06/26 10:58:03;;;;;;;10.30;9.23;;;;;;;27.99;53.18;100590.09;5001063;28;20206;-86
2023/06/26 11:00:31;;;;;;;10.80;9.27;;;;;;;27.79;53.94;100587.34;5005917;28;20276;-87
2023/06/26 11:03:00;;;;;;;11.02;9.60;;;;;;;27.56;54.32;100586.91;5001951;28;20687;-87
2023/06/26 11:05:28;;;;;;;10.25;8.27;;;;;;;27.30;55.33;100582.25;5001929;28;20199;-87
2023/06/26 11:08:05;;;;;;;11.60;8.77;;;;;;;27.14;56.67;100593.56;5008171;28;20203;-87
2023/06/26 11:10:49;;;;;;;10.75;8.68;;;;;;;27.06;57.00;100596.47;5002748;28;20223;-87
2023/06/26 11:13:18;;;;;;;11.02;7.40;;;;;;;27.02;57.06;100603.41;4994245;28;20211;-86
2023/06/26 11:15:46;;;;;;;8.57;7.28;;;;;;;26.92;55.88;100601.88;5005793;28;20673;-87
2023/06/26 11:18:14;;;;;;;6.38;5.43;;;;;;;26.85;55.67;100595.56;5002951;28;20749;-87
2023/06/26 11:20:40;;;;;;;8.27;6.57;;;;;;;26.77;55.29;100593.00;4999717;28;20237;-87
2023/06/26 11:23:08;;;;;;;8.00;6.70;;;;;;;26.70;55.38;100605.75;5001762;28;20218;-87
2023/06/26 11:25:36;;;;;;;7.10;6.40;;;;;;;26.64;55.88;100601.13;5003580;28;20295;-86
2023/06/26 11:28:04;;;;;;;7.32;6.50;;;;;;;26.59;56.16;100601.72;4998877;28;20268;-86
2023/06/26 11:30:30;;;;;;;8.70;7.00;;;;;;;26.57;56.68;100600.25;5002144;28;20258;-86
2023/06/26 11:33:05;;;;;;;8.43;6.80;;;;;;;26.57;56.83;100601.09;4995523;28;20211;-87